createdAt,value
2023-04-22T00:00:24.879Z,95025
2023-04-22T00:01:34.593Z,95029
2023-04-22T00:02:43.376Z,95025
2023-04-22T00:03:52.203Z,95026
2023-04-22T00:05:01.874Z,95025
2023-04-22T00:06:10.444Z,95029
2023-04-22T00:07:19.164Z,95025
2023-04-22T00:08:28.058Z,95028
2023-04-22T00:09:36.929Z,95026
2023-04-22T00:10:46.465Z,95025
2023-04-22T00:11:55.148Z,95025
2023-04-22T00:13:03.852Z,95026
2023-04-22T00:14:13.539Z,95033
2023-04-22T00:15:21.180Z,95029
2023-04-22T00:16:29.933Z,95032
2023-04-22T00:17:38.678Z,95030
2023-04-22T00:18:47.367Z,95031
2023-04-22T00:19:57.086Z,95034
2023-04-22T00:21:04.745Z,95027
2023-04-22T00:22:13.497Z,95028
2023-04-22T00:23:23.235Z,95028
2023-04-22T00:24:30.955Z,95028
2023-04-22T00:25:40.693Z,95028
2023-04-22T00:26:50.403Z,95031
2023-04-22T00:28:00.132Z,95027
2023-04-22T00:29:09.866Z,95027
2023-04-22T00:30:18.538Z,95025
2023-04-22T00:31:28.293Z,95021
2023-04-22T00:32:37.956Z,95022
2023-04-22T00:33:46.634Z,95022
2023-04-22T00:34:55.321Z,95020
2023-04-22T00:36:04.001Z,95023
2023-04-22T00:37:12.686Z,95024
2023-04-22T00:38:22.404Z,95022
2023-04-22T00:39:31.085Z,95025
2023-04-22T00:40:39.786Z,95018
2023-04-22T00:41:49.502Z,95024
2023-04-22T00:42:58.410Z,95024
2023-04-22T00:44:07.060Z,95027
2023-04-22T00:45:14.782Z,95028
2023-04-22T00:46:24.540Z,95029
2023-04-22T00:47:34.200Z,95033
2023-04-22T00:48:42.961Z,95031
2023-04-22T00:49:51.666Z,95028
2023-04-22T00:51:01.345Z,95025
2023-04-22T00:52:09.012Z,95023
2023-04-22T00:53:17.737Z,95023
2023-04-22T00:54:28.404Z,95027
2023-04-22T00:55:37.091Z,95027
2023-04-22T00:56:46.805Z,95026
2023-04-22T00:57:55.559Z,95023
2023-04-22T00:59:04.216Z,95021
2023-04-22T01:00:13.954Z,95021
2023-04-22T01:01:22.689Z,95023
2023-04-22T01:02:32.397Z,95023
2023-04-22T01:03:41.202Z,95024
2023-04-22T01:04:49.697Z,95026
2023-04-22T01:05:59.343Z,95027
2023-04-22T01:07:07.057Z,95023
2023-04-22T01:08:41.846Z,95022
2023-04-22T01:09:52.491Z,95023
2023-04-22T01:11:00.172Z,95023
2023-04-22T01:12:07.797Z,95025
2023-04-22T01:13:17.503Z,95024
2023-04-22T01:14:26.143Z,95023
2023-04-22T01:15:35.805Z,95022
2023-04-22T01:16:45.562Z,95023
2023-04-22T01:17:54.230Z,95025
2023-04-22T01:19:03.859Z,95024
2023-04-22T01:20:11.482Z,95026
2023-04-22T01:21:20.137Z,95029
2023-04-22T01:22:29.800Z,95023
2023-04-22T01:23:37.488Z,95027
2023-04-22T01:24:46.134Z,95023
2023-04-22T01:25:55.800Z,95029
2023-04-22T01:27:05.449Z,95029
2023-04-22T01:28:15.127Z,95024
2023-04-22T01:29:23.791Z,95028
2023-04-22T01:30:32.412Z,95028
2023-04-22T01:31:42.072Z,95025
2023-04-22T01:32:50.794Z,95025
2023-04-22T01:34:00.425Z,95026
2023-04-22T01:35:10.086Z,95021
2023-04-22T01:36:18.700Z,95021
2023-04-22T01:37:28.354Z,95022
2023-04-22T01:38:38.023Z,95019
2023-04-22T01:39:45.674Z,95019
2023-04-22T01:40:54.310Z,95020
2023-04-22T01:42:03.969Z,95017
2023-04-22T01:43:12.617Z,95019
2023-04-22T01:44:22.271Z,95022
2023-04-22T01:45:30.038Z,95019
2023-04-22T01:46:39.580Z,95020
2023-04-22T01:47:49.286Z,95026
2023-04-22T01:48:57.939Z,95023
2023-04-22T01:50:07.609Z,95023
2023-04-22T01:51:16.239Z,95023
2023-04-22T01:52:24.896Z,95022
2023-04-22T01:53:34.550Z,95026
2023-04-22T01:54:43.193Z,95030
2023-04-22T01:55:51.817Z,95029
2023-04-22T01:57:01.473Z,95029
2023-04-22T01:58:10.116Z,95026
2023-04-22T01:59:19.814Z,95026
2023-04-22T02:00:29.487Z,95027
2023-04-22T02:01:39.174Z,95023
2023-04-22T02:02:48.867Z,95028
2023-04-22T02:03:57.450Z,95030
2023-04-22T02:05:06.164Z,95032
2023-04-22T02:06:15.774Z,95030
2023-04-22T02:07:24.429Z,95029
2023-04-22T02:08:33.081Z,95035
2023-04-22T02:09:42.089Z,95035
2023-04-22T02:10:51.370Z,95031
2023-04-22T02:12:01.028Z,95039
2023-04-22T02:13:09.684Z,95038
2023-04-22T02:14:18.378Z,95035
2023-04-22T02:15:28.026Z,95040
2023-04-22T02:16:37.732Z,95036
2023-04-22T02:17:46.430Z,95034
2023-04-22T02:18:56.220Z,95035
2023-04-22T02:20:04.880Z,95029
2023-04-22T02:21:14.494Z,95031
2023-04-22T02:22:23.145Z,95029
2023-04-22T02:23:31.805Z,95028
2023-04-22T02:24:41.476Z,95030
2023-04-22T02:25:49.117Z,95031
2023-04-22T02:26:57.768Z,95031
2023-04-22T02:28:06.418Z,95035
2023-04-22T02:29:16.083Z,95033
2023-04-22T02:30:24.756Z,95035
2023-04-22T02:31:33.431Z,95029
2023-04-22T02:32:42.057Z,95030
2023-04-22T02:33:51.761Z,95030
2023-04-22T02:35:00.407Z,95026
2023-04-22T02:36:10.046Z,95031
2023-04-22T02:37:18.742Z,95024
2023-04-22T02:38:28.392Z,95025
2023-04-22T02:39:37.200Z,95024
2023-04-22T02:40:45.708Z,95024
2023-04-22T02:41:55.359Z,95022
2023-04-22T02:43:05.062Z,95023
2023-04-22T02:44:14.730Z,95024
2023-04-22T02:45:23.389Z,95026
2023-04-22T02:46:32.056Z,95026
2023-04-22T02:47:40.685Z,95025
2023-04-22T02:48:50.397Z,95021
2023-04-22T02:50:00.079Z,95025
2023-04-22T02:51:09.688Z,95026
2023-04-22T02:52:19.349Z,95024
2023-04-22T02:53:27.994Z,95025
2023-04-22T02:54:37.688Z,95026
2023-04-22T02:55:47.358Z,95025
2023-04-22T02:56:57.014Z,95020
2023-04-22T02:58:06.694Z,95022
2023-04-22T02:59:14.366Z,95021
2023-04-22T03:00:24.014Z,95023
2023-04-22T03:01:33.808Z,95022
2023-04-22T03:02:42.503Z,95022
2023-04-22T03:03:52.119Z,95022
2023-04-22T03:05:00.683Z,95021
2023-04-22T03:06:09.378Z,95022
2023-04-22T03:07:19.003Z,95020
2023-04-22T03:08:27.639Z,95018
2023-04-22T03:09:36.345Z,95015
2023-04-22T03:10:45.990Z,95018
2023-04-22T03:11:53.632Z,95016
2023-04-22T03:13:03.278Z,95017
2023-04-22T03:14:11.936Z,95016
2023-04-22T03:15:21.968Z,95016
2023-04-22T03:16:31.295Z,95013
2023-04-22T03:17:39.004Z,95007
2023-04-22T03:18:47.652Z,95014
2023-04-22T03:19:57.347Z,95011
2023-04-22T03:21:05.000Z,95014
2023-04-22T03:22:14.678Z,95010
2023-04-22T03:23:24.290Z,95008
2023-04-22T03:24:33.945Z,95008
2023-04-22T03:25:42.607Z,95005
2023-04-22T03:26:50.249Z,95005
2023-04-22T03:27:58.921Z,95008
2023-04-22T03:29:08.583Z,95006
2023-04-22T03:30:17.286Z,95006
2023-04-22T03:31:24.938Z,95009
2023-04-22T03:32:33.614Z,95008
2023-04-22T03:33:42.228Z,95009
2023-04-22T03:34:51.897Z,95001
2023-04-22T03:35:59.551Z,95007
2023-04-22T03:37:08.202Z,95005
2023-04-22T03:38:17.869Z,95007
2023-04-22T03:39:26.520Z,95006
2023-04-22T03:40:35.192Z,95008
2023-04-22T03:41:44.841Z,95004
2023-04-22T03:42:52.499Z,95005
2023-04-22T03:44:02.201Z,95008
2023-04-22T03:45:11.852Z,95010
2023-04-22T03:46:19.568Z,95013
2023-04-22T03:47:28.142Z,95012
2023-04-22T03:48:36.780Z,95008
2023-04-22T03:49:46.490Z,95014
2023-04-22T03:50:55.112Z,95014
2023-04-22T03:52:03.769Z,95013
2023-04-22T03:53:13.393Z,95018
2023-04-22T03:54:23.078Z,95019
2023-04-22T03:55:32.782Z,95016
2023-04-22T03:56:41.490Z,95017
2023-04-22T03:57:50.121Z,95017
2023-04-22T03:58:58.823Z,95017
2023-04-22T04:00:08.493Z,95017
2023-04-22T04:01:17.170Z,95019
2023-04-22T04:02:25.930Z,95017
2023-04-22T04:03:35.613Z,95018
2023-04-22T04:04:44.540Z,95018
2023-04-22T04:05:52.989Z,95022
2023-04-22T04:07:00.518Z,95022
2023-04-22T04:08:09.124Z,95020
2023-04-22T04:09:18.841Z,95021
2023-04-22T04:10:27.520Z,95019
2023-04-22T04:11:37.202Z,95020
2023-04-22T04:12:46.844Z,95021
2023-04-22T04:13:55.503Z,95018
2023-04-22T04:15:05.179Z,95017
2023-04-22T04:16:14.911Z,95018
2023-04-22T04:17:23.498Z,95014
2023-04-22T04:18:33.132Z,95016
2023-04-22T04:19:42.193Z,95019
2023-04-22T04:20:51.508Z,95013
2023-04-22T04:22:02.007Z,95019
2023-04-22T04:23:10.827Z,95024
2023-04-22T04:24:19.553Z,95020
2023-04-22T04:25:29.266Z,95021
2023-04-22T04:26:39.053Z,95019
2023-04-22T04:27:48.560Z,95022
2023-04-22T04:28:56.219Z,95020
2023-04-22T04:30:05.934Z,95020
2023-04-22T04:31:15.598Z,95018
2023-04-22T04:32:23.232Z,95023
2023-04-22T04:33:31.871Z,95016
2023-04-22T04:34:41.543Z,95026
2023-04-22T04:35:50.184Z,95020
2023-04-22T04:36:59.819Z,95027
2023-04-22T04:38:07.508Z,95024
2023-04-22T04:39:16.157Z,95024
2023-04-22T04:40:25.870Z,95021
2023-04-22T04:41:34.519Z,95020
2023-04-22T04:42:43.177Z,95018
2023-04-22T04:43:52.814Z,95018
2023-04-22T04:45:01.464Z,95021
2023-04-22T04:46:11.144Z,95018
2023-04-22T04:47:19.779Z,95014
2023-04-22T04:48:29.420Z,95019
2023-04-22T04:49:39.195Z,95013
2023-04-22T04:50:47.763Z,95009
2023-04-22T04:51:55.408Z,95015
2023-04-22T04:53:05.073Z,95018
2023-04-22T04:54:14.701Z,95017
2023-04-22T04:55:25.499Z,95016
2023-04-22T04:56:35.158Z,95015
2023-04-22T04:57:43.818Z,95013
2023-04-22T04:58:53.491Z,95017
2023-04-22T05:00:02.160Z,95017
2023-04-22T05:01:10.852Z,95017
2023-04-22T05:02:19.568Z,95021
2023-04-22T05:03:29.232Z,95024
2023-04-22T05:04:38.820Z,95024
2023-04-22T05:05:46.460Z,95025
2023-04-22T05:06:55.181Z,95022
2023-04-22T05:08:04.883Z,95026
2023-04-22T05:09:13.514Z,95018
2023-04-22T05:10:22.202Z,95023
2023-04-22T05:11:30.852Z,95020
2023-04-22T05:12:39.538Z,95018
2023-04-22T05:13:48.210Z,95024
2023-04-22T05:14:56.889Z,95027
2023-04-22T05:16:05.592Z,95021
2023-04-22T05:17:15.281Z,95023
2023-04-22T05:18:21.915Z,95024
2023-04-22T05:19:31.574Z,95023
2023-04-22T05:20:40.265Z,95026
2023-04-22T05:21:49.901Z,95028
2023-04-22T05:22:59.612Z,95024
2023-04-22T05:24:08.229Z,95027
2023-04-22T05:25:16.931Z,95030
2023-04-22T05:26:26.574Z,95026
2023-04-22T05:27:35.245Z,95030
2023-04-22T05:28:43.924Z,95025
2023-04-22T05:29:52.596Z,95029
2023-04-22T05:31:02.455Z,95027
2023-04-22T05:32:12.141Z,95031
2023-04-22T05:33:19.815Z,95020
2023-04-22T05:34:28.467Z,95021
2023-04-22T05:35:38.153Z,95027
2023-04-22T05:36:46.841Z,95027
2023-04-22T05:37:54.459Z,95027
2023-04-22T05:39:04.108Z,95023
2023-04-22T05:40:11.766Z,95024
2023-04-22T05:41:21.430Z,95023
2023-04-22T05:42:31.088Z,95024
2023-04-22T05:43:40.747Z,95022
2023-04-22T05:44:49.432Z,95027
2023-04-22T05:45:58.113Z,95028
2023-04-22T05:47:06.768Z,95024
2023-04-22T05:48:16.396Z,95030
2023-04-22T05:49:24.046Z,95030
2023-04-22T05:50:33.734Z,95037
2023-04-22T05:51:43.394Z,95034
2023-04-22T05:52:51.021Z,95036
2023-04-22T05:53:59.686Z,95042
2023-04-22T05:55:08.432Z,95046
2023-04-22T05:56:17.137Z,95049
2023-04-22T05:57:26.859Z,95048
2023-04-22T05:58:35.494Z,95050
2023-04-22T05:59:44.163Z,95053
2023-04-22T06:00:53.857Z,95045
2023-04-22T06:02:03.695Z,95046
2023-04-22T06:03:12.578Z,95044
2023-04-22T06:04:22.261Z,95047
2023-04-22T06:05:30.856Z,95049
2023-04-22T06:06:40.422Z,95050
2023-04-22T06:07:48.057Z,95055
2023-04-22T06:08:56.739Z,95055
2023-04-22T06:10:06.421Z,95057
2023-04-22T06:11:14.111Z,95062
2023-04-22T06:12:23.758Z,95063
2023-04-22T06:13:32.403Z,95065
2023-04-22T06:14:42.049Z,95063
2023-04-22T06:15:51.744Z,95061
2023-04-22T06:16:59.375Z,95065
2023-04-22T06:18:10.035Z,95072
2023-04-22T06:19:19.717Z,95073
2023-04-22T06:20:28.451Z,95070
2023-04-22T06:21:38.041Z,95073
2023-04-22T06:22:46.681Z,95074
2023-04-22T06:23:55.330Z,95073
2023-04-22T06:25:04.989Z,95070
2023-04-22T06:26:13.661Z,95072
2023-04-22T06:27:23.300Z,95074
2023-04-22T06:28:32.967Z,95077
2023-04-22T06:29:41.679Z,95073
2023-04-22T06:30:50.319Z,95078
2023-04-22T06:31:59.919Z,95076
2023-04-22T06:33:08.601Z,95079
2023-04-22T06:34:18.198Z,95079
2023-04-22T06:35:26.917Z,95071
2023-04-22T06:36:35.707Z,95074
2023-04-22T06:37:45.368Z,95070
2023-04-22T06:38:53.017Z,95071
2023-04-22T06:40:03.678Z,95071
2023-04-22T06:41:13.334Z,95069
2023-04-22T06:42:21.998Z,95072
2023-04-22T06:43:31.646Z,95071
2023-04-22T06:44:41.336Z,95072
2023-04-22T06:45:49.979Z,95073
2023-04-22T06:46:59.682Z,95078
2023-04-22T06:48:08.325Z,95079
2023-04-22T06:49:16.963Z,95084
2023-04-22T06:50:25.663Z,95077
2023-04-22T06:51:34.382Z,95080
2023-04-22T06:52:44.011Z,95079
2023-04-22T06:53:51.664Z,95078
2023-04-22T06:55:01.303Z,95082
2023-04-22T06:56:10.942Z,95079
2023-04-22T06:57:19.617Z,95074
2023-04-22T06:58:29.257Z,95073
2023-04-22T06:59:38.149Z,95072
2023-04-22T07:00:47.719Z,95076
2023-04-22T07:01:57.456Z,95078
2023-04-22T07:03:06.146Z,95075
2023-04-22T07:04:14.716Z,95076
2023-04-22T07:05:24.369Z,95076
2023-04-22T07:06:33.024Z,95083
2023-04-22T07:07:42.777Z,95080
2023-04-22T07:08:52.419Z,95079
2023-04-22T07:10:02.061Z,95070
2023-04-22T07:11:13.933Z,95078
2023-04-22T07:12:22.433Z,95074
2023-04-22T07:13:31.092Z,95075
2023-04-22T07:14:40.754Z,95067
2023-04-22T07:15:49.439Z,95070
2023-04-22T07:16:58.100Z,95074
2023-04-22T07:18:06.774Z,95073
2023-04-22T07:19:15.508Z,95067
2023-04-22T07:20:25.245Z,95067
2023-04-22T07:21:33.824Z,95067
2023-04-22T07:22:42.524Z,95073
2023-04-22T07:23:52.209Z,95068
2023-04-22T07:25:01.842Z,95070
2023-04-22T07:26:09.577Z,95067
2023-04-22T07:27:18.265Z,95065
2023-04-22T07:28:26.919Z,95066
2023-04-22T07:29:36.638Z,95059
2023-04-22T07:30:46.267Z,95068
2023-04-22T07:31:54.988Z,95061
2023-04-22T07:33:04.620Z,95060
2023-04-22T07:34:14.257Z,95059
2023-04-22T07:35:23.893Z,95061
2023-04-22T07:36:33.633Z,95059
2023-04-22T07:37:42.342Z,95059
2023-04-22T07:38:50.975Z,95059
2023-04-22T07:40:00.669Z,95064
2023-04-22T07:41:10.276Z,95059
2023-04-22T07:42:18.973Z,95061
2023-04-22T07:43:28.632Z,95055
2023-04-22T07:44:39.379Z,95054
2023-04-22T07:45:46.947Z,95059
2023-04-22T07:46:54.607Z,95058
2023-04-22T07:48:03.330Z,95061
2023-04-22T07:49:11.932Z,95058
2023-04-22T07:50:19.603Z,95059
2023-04-22T07:51:29.326Z,95061
2023-04-22T07:52:38.061Z,95062
2023-04-22T07:53:46.735Z,95062
2023-04-22T07:54:56.488Z,95066
2023-04-22T07:56:03.153Z,95057
2023-04-22T07:57:13.579Z,95066
2023-04-22T07:58:23.248Z,95063
2023-04-22T07:59:30.903Z,95065
2023-04-22T08:00:39.553Z,95061
2023-04-22T08:01:48.166Z,95060
2023-04-22T08:02:57.964Z,95062
2023-04-22T08:04:06.725Z,95061
2023-04-22T08:05:15.223Z,95060
2023-04-22T08:06:23.820Z,95063
2023-04-22T08:07:33.774Z,95058
2023-04-22T08:08:42.153Z,95062
2023-04-22T08:09:50.836Z,95065
2023-04-22T08:10:59.500Z,95063
2023-04-22T08:12:08.175Z,95065
2023-04-22T08:13:18.365Z,95065
2023-04-22T08:14:25.534Z,95067
2023-04-22T08:15:35.217Z,95065
2023-04-22T08:16:44.867Z,95061
2023-04-22T08:17:52.540Z,95065
2023-04-22T08:19:01.200Z,95065
2023-04-22T08:20:09.914Z,95066
2023-04-22T08:21:18.580Z,95065
2023-04-22T08:22:28.250Z,95066
2023-04-22T08:23:37.915Z,95066
2023-04-22T08:24:46.581Z,95065
2023-04-22T08:25:56.351Z,95064
2023-04-22T08:27:04.946Z,95067
2023-04-22T08:28:12.667Z,95064
2023-04-22T08:29:22.339Z,95071
2023-04-22T08:30:31.985Z,95063
2023-04-22T08:31:41.907Z,95063
2023-04-22T08:32:51.572Z,95059
2023-04-22T08:34:00.279Z,95059
2023-04-22T08:35:08.946Z,95061
2023-04-22T08:36:17.639Z,95061
2023-04-22T08:37:26.277Z,95063
2023-04-22T08:38:34.965Z,95064
2023-04-22T08:39:44.694Z,95067
2023-04-22T08:40:54.351Z,95069
2023-04-22T08:42:03.008Z,95074
2023-04-22T08:43:13.522Z,95072
2023-04-22T08:44:23.234Z,95071
2023-04-22T08:45:32.921Z,95073
2023-04-22T08:46:41.594Z,95072
2023-04-22T08:47:50.241Z,95071
2023-04-22T08:48:58.875Z,95073
2023-04-22T08:50:08.567Z,95073
2023-04-22T08:51:18.228Z,95072
2023-04-22T08:52:26.892Z,95076
2023-04-22T08:53:35.613Z,95071
2023-04-22T08:54:44.308Z,95071
2023-04-22T08:55:52.952Z,95071
2023-04-22T08:57:02.645Z,95062
2023-04-22T08:58:11.279Z,95065
2023-04-22T08:59:20.958Z,95070
2023-04-22T09:00:29.617Z,95068
2023-04-22T09:01:38.361Z,95069
2023-04-22T09:02:47.962Z,95065
2023-04-22T09:03:55.637Z,95069
2023-04-22T09:05:05.278Z,95067
2023-04-22T09:06:13.898Z,95068
2023-04-22T09:07:22.562Z,95067
2023-04-22T09:08:32.252Z,95062
2023-04-22T09:09:41.075Z,95057
2023-04-22T09:10:49.682Z,95061
2023-04-22T09:11:59.391Z,95060
2023-04-22T09:13:09.080Z,95062
2023-04-22T09:14:17.759Z,95060
2023-04-22T09:15:27.432Z,95060
2023-04-22T09:16:36.189Z,95053
2023-04-22T09:17:45.750Z,95064
2023-04-22T09:18:54.424Z,95056
2023-04-22T09:20:03.099Z,95052
2023-04-22T09:21:12.736Z,95052
2023-04-22T09:22:20.384Z,95053
2023-04-22T09:23:30.080Z,95054
2023-04-22T09:24:38.781Z,95058
2023-04-22T09:25:47.449Z,95051
2023-04-22T09:26:56.103Z,95052
2023-04-22T09:28:03.745Z,95054
2023-04-22T09:29:13.466Z,95056
2023-04-22T09:30:22.105Z,95050
2023-04-22T09:31:30.788Z,95049
2023-04-22T09:32:39.482Z,95049
2023-04-22T09:33:50.217Z,95049
2023-04-22T09:34:57.768Z,95051
2023-04-22T09:36:06.416Z,95048
2023-04-22T09:37:16.069Z,95047
2023-04-22T09:38:23.715Z,95048
2023-04-22T09:39:32.423Z,95047
2023-04-22T09:40:42.131Z,95050
2023-04-22T09:41:51.775Z,95050
2023-04-22T09:43:01.434Z,95049
2023-04-22T09:44:10.196Z,95050
2023-04-22T09:45:18.865Z,95049
2023-04-22T09:46:28.708Z,95055
2023-04-22T09:47:36.189Z,95050
2023-04-22T09:48:45.855Z,95052
2023-04-22T09:49:55.530Z,95052
2023-04-22T09:51:04.180Z,95056
2023-04-22T09:52:12.837Z,95054
2023-04-22T09:53:20.535Z,95049
2023-04-22T09:54:30.198Z,95051
2023-04-22T09:55:39.876Z,95047
2023-04-22T09:56:47.518Z,95046
2023-04-22T09:57:57.190Z,95042
2023-04-22T09:59:06.868Z,95044
2023-04-22T10:00:15.551Z,95046
2023-04-22T10:01:25.289Z,95049
2023-04-22T10:02:33.959Z,95048
2023-04-22T10:03:43.612Z,95043
2023-04-22T10:04:53.376Z,95039
2023-04-22T10:06:01.965Z,95036
2023-04-22T10:07:10.617Z,95036
2023-04-22T10:08:19.341Z,95038
2023-04-22T10:09:29.017Z,95032
2023-04-22T10:10:38.748Z,95032
2023-04-22T10:11:46.439Z,95032
2023-04-22T10:12:55.093Z,95031
2023-04-22T10:14:04.780Z,95033
2023-04-22T10:15:13.825Z,95037
2023-04-22T10:16:23.234Z,95034
2023-04-22T10:17:32.916Z,95033
2023-04-22T10:18:41.549Z,95034
2023-04-22T10:19:51.264Z,95033
2023-04-22T10:20:58.973Z,95030
2023-04-22T10:22:07.669Z,95025
2023-04-22T10:23:16.341Z,95027
2023-04-22T10:24:25.052Z,95027
2023-04-22T10:25:34.667Z,95024
2023-04-22T10:26:43.314Z,95026
2023-04-22T10:27:51.968Z,95024
2023-04-22T10:29:01.691Z,95021
2023-04-22T10:30:11.392Z,95022
2023-04-22T10:31:20.049Z,95018
2023-04-22T10:32:29.752Z,95021
2023-04-22T10:33:39.704Z,95022
2023-04-22T10:34:48.093Z,95023
2023-04-22T10:35:56.754Z,95022
2023-04-22T10:37:05.428Z,95016
2023-04-22T10:38:15.122Z,95015
2023-04-22T10:39:23.862Z,95016
2023-04-22T10:40:33.532Z,95011
2023-04-22T10:41:43.218Z,95015
2023-04-22T10:42:50.866Z,95016
2023-04-22T10:43:59.511Z,95014
2023-04-22T10:45:09.199Z,95019
2023-04-22T10:46:18.946Z,95012
2023-04-22T10:47:28.637Z,95011
2023-04-22T10:48:37.237Z,95012
2023-04-22T10:49:45.911Z,95008
2023-04-22T10:50:55.575Z,95007
2023-04-22T10:52:05.235Z,95008
2023-04-22T10:53:13.916Z,95006
2023-04-22T10:54:23.585Z,95003
2023-04-22T10:55:34.256Z,95003
2023-04-22T10:56:48.627Z,94999
2023-04-22T10:57:54.585Z,94999
2023-04-22T10:59:04.221Z,95003
2023-04-22T11:00:13.945Z,95000
2023-04-22T11:01:22.591Z,94996
2023-04-22T11:02:32.332Z,94994
2023-04-22T11:03:42.031Z,95001
2023-04-22T11:04:51.658Z,94991
2023-04-22T11:06:01.339Z,94994
2023-04-22T11:07:07.999Z,94991
2023-04-22T11:08:16.675Z,94989
2023-04-22T11:09:26.379Z,94995
2023-04-22T11:10:36.175Z,94995
2023-04-22T11:11:45.827Z,95000
2023-04-22T11:12:55.511Z,95002
2023-04-22T11:14:05.226Z,94993
2023-04-22T11:15:14.934Z,94994
2023-04-22T11:16:23.645Z,94994
2023-04-22T11:17:32.243Z,94997
2023-04-22T11:18:41.905Z,94993
2023-04-22T11:19:50.574Z,94994
2023-04-22T11:21:00.247Z,94990
2023-04-22T11:22:08.938Z,94987
2023-04-22T11:23:17.613Z,94987
2023-04-22T11:24:27.474Z,94990
2023-04-22T11:25:37.141Z,94988
2023-04-22T11:26:45.809Z,94983
2023-04-22T11:27:55.490Z,94981
2023-04-22T11:29:05.176Z,94976
2023-04-22T11:30:15.134Z,94981
2023-04-22T11:31:23.639Z,94986
2023-04-22T11:32:32.299Z,94984
2023-04-22T11:33:41.969Z,94988
2023-04-22T11:34:52.635Z,94988
2023-04-22T11:36:01.353Z,94985
2023-04-22T11:37:09.973Z,94984
2023-04-22T11:38:18.610Z,94981
2023-04-22T11:39:27.263Z,94982
2023-04-22T11:40:38.480Z,94979
2023-04-22T11:41:47.573Z,94981
2023-04-22T11:42:56.203Z,94977
2023-04-22T11:44:05.893Z,94980
2023-04-22T11:45:13.561Z,94977
2023-04-22T11:46:22.488Z,94979
2023-04-22T11:47:31.891Z,94981
2023-04-22T11:48:40.544Z,94979
2023-04-22T11:49:50.220Z,94978
2023-04-22T11:50:58.128Z,94974
2023-04-22T11:52:06.808Z,94977
2023-04-22T11:53:15.588Z,94977
2023-04-22T11:54:24.327Z,94978
2023-04-22T11:55:34.099Z,94974
2023-04-22T11:56:44.465Z,94972
2023-04-22T11:57:52.514Z,94971
2023-04-22T11:59:02.176Z,94981
2023-04-22T12:00:09.900Z,94972
2023-04-22T12:01:19.637Z,94973
2023-04-22T12:02:29.433Z,94973
2023-04-22T12:03:37.153Z,94973
2023-04-22T12:04:45.775Z,94970
2023-04-22T12:05:55.498Z,94969
2023-04-22T12:07:05.186Z,94971
2023-04-22T12:08:14.860Z,94969
2023-04-22T12:09:22.541Z,94976
2023-04-22T12:10:30.201Z,94971
2023-04-22T12:11:39.910Z,94971
2023-04-22T12:12:47.598Z,94969
2023-04-22T12:13:56.271Z,94970
2023-04-22T12:15:06.930Z,94970
2023-04-22T12:16:16.611Z,94968
2023-04-22T12:17:26.348Z,94964
2023-04-22T12:18:34.953Z,94968
2023-04-22T12:19:42.757Z,94965
2023-04-22T12:20:52.341Z,94970
2023-04-22T12:22:00.050Z,94964
2023-04-22T12:23:08.741Z,94965
2023-04-22T12:24:17.427Z,94961
2023-04-22T12:25:27.092Z,94960
2023-04-22T12:26:36.803Z,94956
2023-04-22T12:27:45.491Z,94958
2023-04-22T12:28:54.251Z,94957
2023-04-22T12:30:03.981Z,94958
2023-04-22T12:31:13.747Z,94957
2023-04-22T12:32:24.809Z,94955
2023-04-22T12:33:33.035Z,94960
2023-04-22T12:34:41.705Z,94959
2023-04-22T12:35:51.373Z,94955
2023-04-22T12:37:01.096Z,94955
2023-04-22T12:38:09.778Z,94961
2023-04-22T12:39:19.444Z,94956
2023-04-22T12:40:29.123Z,94956
2023-04-22T12:41:37.835Z,94954
2023-04-22T12:42:46.535Z,94951
2023-04-22T12:43:56.292Z,94945
2023-04-22T12:45:05.981Z,94951
2023-04-22T12:46:15.728Z,94941
2023-04-22T12:47:25.381Z,94951
2023-04-22T12:48:35.009Z,94949
2023-04-22T12:49:44.750Z,94957
2023-04-22T12:50:52.361Z,94951
2023-04-22T12:52:01.117Z,94951
2023-04-22T12:53:10.795Z,94953
2023-04-22T12:54:20.541Z,94952
2023-04-22T12:55:29.189Z,94951
2023-04-22T12:56:37.871Z,94952
2023-04-22T12:57:47.527Z,94952
2023-04-22T12:58:55.196Z,94951
2023-04-22T13:00:04.888Z,94946
2023-04-22T13:01:14.547Z,94951
2023-04-22T13:02:24.241Z,94948
2023-04-22T13:03:34.095Z,94941
2023-04-22T13:04:42.664Z,94936
2023-04-22T13:05:51.232Z,94937
2023-04-22T13:07:00.935Z,94937
2023-04-22T13:08:08.619Z,94931
2023-04-22T13:09:18.258Z,94929
2023-04-22T13:10:26.950Z,94931
2023-04-22T13:11:36.615Z,94922
2023-04-22T13:12:46.285Z,94928
2023-04-22T13:13:54.953Z,94923
2023-04-22T13:15:04.615Z,94929
2023-04-22T13:16:14.325Z,94922
2023-04-22T13:17:24.051Z,94920
2023-04-22T13:18:33.769Z,94924
2023-04-22T13:19:42.438Z,94925
2023-04-22T13:20:51.145Z,94922
2023-04-22T13:22:00.888Z,94925
2023-04-22T13:23:08.561Z,94925
2023-04-22T13:24:18.240Z,94923
2023-04-22T13:25:27.934Z,94919
2023-04-22T13:26:36.624Z,94921
2023-04-22T13:27:45.352Z,94916
2023-04-22T13:28:54.988Z,94918
2023-04-22T13:30:03.761Z,94915
2023-04-22T13:31:12.483Z,94910
2023-04-22T13:32:22.235Z,94912
2023-04-22T13:33:31.871Z,94912
2023-04-22T13:34:41.555Z,94916
2023-04-22T13:35:50.207Z,94910
2023-04-22T13:36:59.903Z,94908
2023-04-22T13:38:09.568Z,94908
2023-04-22T13:39:17.299Z,94911
2023-04-22T13:40:27.045Z,94915
2023-04-22T13:41:36.750Z,94909
2023-04-22T13:42:45.472Z,94907
2023-04-22T13:43:55.146Z,94908
2023-04-22T13:45:04.827Z,94902
2023-04-22T13:46:14.515Z,94903
2023-04-22T13:47:24.201Z,94908
2023-04-22T13:48:32.820Z,94905
2023-04-22T13:49:42.593Z,94902
2023-04-22T13:50:52.140Z,94905
2023-04-22T13:52:00.808Z,94906
2023-04-22T13:53:10.610Z,94904
2023-04-22T13:54:19.221Z,94900
2023-04-22T13:55:28.901Z,94901
2023-04-22T13:56:38.575Z,94898
2023-04-22T13:57:46.363Z,94896
2023-04-22T13:58:55.040Z,94894
2023-04-22T14:00:04.745Z,94893
2023-04-22T14:01:14.416Z,94889
2023-04-22T14:02:23.086Z,94887
2023-04-22T14:03:32.792Z,94890
2023-04-22T14:04:41.429Z,94890
2023-04-22T14:05:51.092Z,94885
2023-04-22T14:06:59.767Z,94886
2023-04-22T14:08:08.424Z,94889
2023-04-22T14:09:18.075Z,94884
2023-04-22T14:10:28.510Z,94883
2023-04-22T14:11:35.432Z,94890
2023-04-22T14:12:44.100Z,94891
2023-04-22T14:13:52.752Z,94889
2023-04-22T14:15:02.426Z,94891
2023-04-22T14:16:12.093Z,94890
2023-04-22T14:17:20.880Z,94887
2023-04-22T14:18:30.560Z,94892
2023-04-22T14:19:39.636Z,94891
2023-04-22T14:20:47.987Z,94886
2023-04-22T14:21:57.678Z,94887
2023-04-22T14:23:05.374Z,94885
2023-04-22T14:24:14.011Z,94880
2023-04-22T14:25:21.669Z,94881
2023-04-22T14:26:31.373Z,94887
2023-04-22T14:27:41.057Z,94879
2023-04-22T14:28:49.772Z,94878
2023-04-22T14:29:58.498Z,94882
2023-04-22T14:31:08.231Z,94880
2023-04-22T14:32:18.601Z,94878
2023-04-22T14:33:27.004Z,94874
2023-04-22T14:34:34.623Z,94875
2023-04-22T14:35:43.374Z,94877
2023-04-22T14:36:53.044Z,94877
2023-04-22T14:38:00.803Z,94875
2023-04-22T14:39:09.468Z,94879
2023-04-22T14:40:19.166Z,94880
2023-04-22T14:41:27.904Z,94880
2023-04-22T14:42:37.743Z,94881
2023-04-22T14:43:45.424Z,94880
2023-04-22T14:44:54.148Z,94882
2023-04-22T14:46:03.839Z,94876
2023-04-22T14:47:12.557Z,94884
2023-04-22T14:48:22.254Z,94879
2023-04-22T14:49:32.701Z,94882